Time;durP1;ratioP1;P1;durP2;ratioP2;P2;SDS_P1;SDS_P2;PMS_P1;PMS_P2;Temp;Humidity;BMP_temperature;BMP_pressure;BME280_temperature;BME280_humidity;BME280_pressure;Samples;Min_cycle;Max_cycle;Signal;HPM_P1;HPM_P2
2023/03/19 00:00:30;;;;;;;16.85;10.15;;;9.80;99.90;;;;;;5113308;28;20130;-66
2023/03/19 00:02:57;;;;;;;18.58;10.60;;;9.80;99.90;;;;;;5095869;28;20044;-66
2023/03/19 00:05:25;;;;;;;16.50;11.73;;;9.80;99.90;;;;;;5114457;28;20350;-66
2023/03/19 00:07:55;;;;;;;17.17;11.05;;;9.80;99.90;;;;;;5113832;28;20071;-69
2023/03/19 00:10:26;;;;;;;15.77;11.02;;;9.80;99.90;;;;;;5114361;28;20039;-68
2023/03/19 00:12:53;;;;;;;18.85;12.15;;;9.80;99.90;;;;;;5113719;28;20071;-68
2023/03/19 00:15:21;;;;;;;15.23;10.55;;;9.80;99.90;;;;;;5113627;28;20523;-66
2023/03/19 00:17:48;;;;;;;18.33;11.30;;;9.70;99.90;;;;;;5096074;28;20051;-66
2023/03/19 00:20:17;;;;;;;16.30;10.68;;;9.70;99.90;;;;;;5075079;28;20042;-67
2023/03/19 00:22:44;;;;;;;21.33;10.80;;;9.70;99.90;;;;;;5072276;28;20039;-66
2023/03/19 00:25:11;;;;;;;14.63;9.73;;;9.70;99.90;;;;;;5095830;28;20043;-67
2023/03/19 00:27:39;;;;;;;14.35;9.57;;;9.70;99.90;;;;;;5112610;28;20093;-67
2023/03/19 00:30:10;;;;;;;15.82;10.07;;;9.60;99.90;;;;;;5112989;28;20040;-66
2023/03/19 00:32:38;;;;;;;13.65;9.07;;;9.60;99.90;;;;;;5095661;28;20181;-67
2023/03/19 00:35:07;;;;;;;14.15;10.15;;;9.60;99.90;;;;;;5075696;28;20048;-66
2023/03/19 00:37:36;;;;;;;16.27;10.55;;;9.60;99.90;;;;;;5109380;28;20105;-66
2023/03/19 00:40:04;;;;;;;15.95;10.23;;;9.60;99.90;;;;;;5095747;28;20541;-66
2023/03/19 00:42:33;;;;;;;19.05;11.40;;;9.60;99.90;;;;;;5113143;28;20528;-67
2023/03/19 00:45:00;;;;;;;15.02;10.23;;;9.60;99.90;;;;;;5113150;28;20473;-66
2023/03/19 00:47:29;;;;;;;15.43;9.43;;;9.60;99.90;;;;;;5094786;28;20046;-67
2023/03/19 00:49:57;;;;;;;13.85;9.07;;;9.50;99.90;;;;;;5094767;28;20174;-66
2023/03/19 00:52:24;;;;;;;14.32;10.15;;;9.50;99.90;;;;;;5095236;28;20393;-66
2023/03/19 00:54:51;;;;;;;15.30;9.48;;;9.50;99.90;;;;;;5112870;28;20454;-66
2023/03/19 00:57:19;;;;;;;12.48;9.73;;;9.40;99.90;;;;;;5111970;28;20059;-67
2023/03/19 00:59:47;;;;;;;16.17;9.93;;;9.40;99.90;;;;;;5094540;28;20058;-67
2023/03/19 01:02:14;;;;;;;13.82;9.77;;;9.40;99.90;;;;;;5113270;28;20104;-66
2023/03/19 01:04:42;;;;;;;12.88;9.30;;;9.40;99.90;;;;;;5094389;28;20104;-66
2023/03/19 01:07:10;;;;;;;15.60;10.75;;;9.40;99.90;;;;;;5094510;28;20036;-66
2023/03/19 01:09:38;;;;;;;15.70;10.50;;;9.40;99.90;;;;;;5112555;28;20131;-65
2023/03/19 01:12:06;;;;;;;14.38;9.27;;;9.40;99.90;;;;;;5112531;28;20043;-66
2023/03/19 01:14:33;;;;;;;11.85;9.00;;;9.40;99.90;;;;;;5094213;28;20046;-66
2023/03/19 01:17:01;;;;;;;16.02;10.15;;;9.40;99.90;;;;;;5112498;28;20039;-66
2023/03/19 01:19:29;;;;;;;17.95;10.45;;;9.40;99.90;;;;;;5106990;28;20040;-67
2023/03/19 01:21:56;;;;;;;19.42;10.40;;;9.40;99.90;;;;;;5094581;28;20039;-66
2023/03/19 01:24:29;;;;;;;15.32;10.75;;;9.40;99.90;;;;;;5093758;28;20071;-66
2023/03/19 01:26:56;;;;;;;;;;;9.30;99.90;;;;;;5077589;28;20042;-66
2023/03/19 01:29:35;;;;;;;15.57;9.95;;;9.30;99.90;;;;;;5094045;28;19927;-66
2023/03/19 01:32:13;;;;;;;15.93;10.00;;;9.30;99.90;;;;;;5094257;28;20514;-66
2023/03/19 01:35:05;;;;;;;15.90;8.93;;;9.30;99.90;;;;;;5102523;28;20054;-66
2023/03/19 01:37:32;;;;;;;20.92;10.48;;;9.20;99.90;;;;;;5108713;28;20516;-67
2023/03/19 01:40:00;;;;;;;14.20;9.80;;;9.20;99.90;;;;;;5093601;28;20035;-66
2023/03/19 01:42:29;;;;;;;14.30;9.82;;;9.20;99.90;;;;;;5107821;28;20067;-67
2023/03/19 01:45:33;;;;;;;;;;;9.20;99.90;;;;;;5081234;28;20097;-66
2023/03/19 01:48:39;;;;;;;14.57;10.43;;;9.10;99.90;;;;;;5111956;28;19924;-67
2023/03/19 01:51:15;;;;;;;16.20;10.15;;;9.10;99.90;;;;;;5093751;28;20519;-67
2023/03/19 01:53:54;;;;;;;19.75;10.60;;;9.10;99.90;;;;;;5111786;28;20123;-67
2023/03/19 01:56:35;;;;;;;15.18;9.15;;;9.00;99.90;;;;;;5094049;28;20521;-67
2023/03/19 01:59:27;;;;;;;13.50;9.65;;;9.10;99.90;;;;;;5093063;28;20043;-66
2023/03/19 02:02:30;;;;;;;16.23;10.00;;;9.10;99.90;;;;;;5029189;28;20188;-66
2023/03/19 02:05:06;;;;;;;15.18;10.35;;;9.00;99.90;;;;;;5028455;28;20092;-65
2023/03/19 02:07:36;;;;;;;14.82;9.77;;;9.00;99.90;;;;;;5027026;28;20111;-67
2023/03/19 02:10:10;;;;;;;17.95;10.48;;;9.00;99.90;;;;;;5004456;28;20503;-65
2023/03/19 02:12:38;;;;;;;14.55;9.20;;;9.00;99.90;;;;;;5019715;28;20092;-65
2023/03/19 02:15:06;;;;;;;13.25;9.32;;;9.00;99.90;;;;;;5029221;28;20477;-65
2023/03/19 02:17:34;;;;;;;13.50;8.93;;;9.00;99.90;;;;;;5008234;28;20177;-67
2023/03/19 02:20:21;;;;;;;12.73;9.05;;;9.00;99.90;;;;;;5011632;28;20050;-68
2023/03/19 02:23:02;;;;;;;18.50;10.48;;;9.00;99.90;;;;;;5045547;28;20571;-67
2023/03/19 02:25:43;;;;;;;18.80;11.18;;;9.00;99.90;;;;;;5011918;28;20053;-67
2023/03/19 02:28:15;;;;;;;15.65;9.27;;;9.00;99.90;;;;;;5008881;28;20071;-65
2023/03/19 02:30:44;;;;;;;12.55;8.25;;;9.10;99.90;;;;;;5028777;28;20052;-66
2023/03/19 02:33:17;;;;;;;15.57;8.75;;;9.00;99.90;;;;;;5028858;28;20041;-66
2023/03/19 02:35:48;;;;;;;13.68;8.63;;;9.00;99.90;;;;;;5028317;28;20152;-65
2023/03/19 02:38:21;;;;;;;14.85;9.52;;;9.00;99.90;;;;;;5066107;28;20394;-67
2023/03/19 02:40:55;;;;;;;12.15;8.52;;;9.00;99.90;;;;;;5073011;28;20571;-66
2023/03/19 02:43:23;;;;;;;12.13;9.02;;;8.90;99.90;;;;;;5091368;28;20031;-65
2023/03/19 02:45:51;;;;;;;12.93;8.13;;;8.90;99.90;;;;;;5076102;28;20074;-66
2023/03/19 02:48:18;;;;;;;11.95;8.40;;;8.90;99.90;;;;;;5111196;28;20118;-65
2023/03/19 02:50:45;;;;;;;15.88;9.45;;;8.90;99.90;;;;;;5078542;28;20040;-66
2023/03/19 02:53:14;;;;;;;12.45;8.50;;;8.90;99.90;;;;;;5115761;28;20044;-66
2023/03/19 02:55:42;;;;;;;12.45;8.10;;;8.90;99.90;;;;;;5114955;28;20055;-65
2023/03/19 02:58:10;;;;;;;10.50;8.10;;;8.90;99.90;;;;;;5115170;28;20058;-66
2023/03/19 03:00:37;;;;;;;12.63;8.60;;;8.90;99.90;;;;;;5096729;28;20036;-65
2023/03/19 03:03:06;;;;;;;13.38;8.90;;;8.90;99.90;;;;;;5096543;28;20036;-66
2023/03/19 03:05:34;;;;;;;14.02;8.95;;;8.90;99.90;;;;;;5115164;28;20039;-65
2023/03/19 03:08:03;;;;;;;15.95;9.00;;;8.90;99.90;;;;;;5096909;28;20355;-65
2023/03/19 03:10:32;;;;;;;13.90;9.15;;;8.90;99.90;;;;;;5079995;28;20062;-65
2023/03/19 03:13:00;;;;;;;15.65;9.10;;;8.90;99.90;;;;;;5114959;28;20096;-66
2023/03/19 03:15:28;;;;;;;15.98;9.43;;;8.90;99.90;;;;;;5114986;28;20142;-65
2023/03/19 03:17:56;;;;;;;15.80;9.77;;;8.90;99.90;;;;;;5096418;28;20039;-66
2023/03/19 03:20:23;;;;;;;13.55;9.20;;;8.90;99.90;;;;;;5080111;28;20063;-66
2023/03/19 03:22:52;;;;;;;14.43;9.68;;;8.90;99.90;;;;;;5090549;28;20103;-69
2023/03/19 03:25:20;;;;;;;15.57;10.52;;;9.00;99.90;;;;;;5112926;28;20096;-66
2023/03/19 03:27:47;;;;;;;19.27;10.60;;;9.00;99.90;;;;;;5103950;28;20545;-66
2023/03/19 03:30:15;;;;;;;16.20;10.23;;;9.00;99.90;;;;;;5095696;28;20136;-65
2023/03/19 03:32:43;;;;;;;14.68;9.55;;;9.00;99.90;;;;;;5114222;28;20043;-66
2023/03/19 03:35:11;;;;;;;15.85;9.32;;;9.00;99.90;;;;;;5114977;28;20051;-66
2023/03/19 03:37:38;;;;;;;16.50;10.15;;;9.00;99.90;;;;;;5114915;28;20042;-65
2023/03/19 03:40:07;;;;;;;13.32;9.75;;;9.00;99.90;;;;;;5103061;28;20046;-66
2023/03/19 03:42:36;;;;;;;13.55;9.57;;;9.10;99.90;;;;;;5075753;28;20517;-65
2023/03/19 03:45:08;;;;;;;18.13;10.10;;;9.10;99.90;;;;;;5093949;28;20070;-64
2023/03/19 03:47:36;;;;;;;15.50;10.13;;;9.10;99.90;;;;;;5095862;28;20413;-66
2023/03/19 03:50:04;;;;;;;20.67;10.65;;;9.10;99.90;;;;;;5082224;28;20406;-66
2023/03/19 03:52:32;;;;;;;14.13;10.27;;;9.10;99.90;;;;;;5074469;28;20126;-67
2023/03/19 03:55:00;;;;;;;21.42;10.80;;;9.10;99.90;;;;;;5074170;28;20448;-66
2023/03/19 03:57:28;;;;;;;16.50;9.63;;;9.10;99.90;;;;;;5073485;28;20101;-66
2023/03/19 03:59:56;;;;;;;17.58;10.43;;;9.10;99.90;;;;;;5074660;28;20433;-66
2023/03/19 04:02:23;;;;;;;17.42;10.40;;;9.10;99.90;;;;;;5072291;28;20044;-66
2023/03/19 04:04:51;;;;;;;15.63;10.40;;;9.10;99.90;;;;;;5092775;28;20524;-66
2023/03/19 04:07:19;;;;;;;17.17;10.65;;;9.20;99.90;;;;;;5092841;28;20051;-67
2023/03/19 04:09:52;;;;;;;15.20;10.20;;;9.20;99.90;;;;;;5073952;28;20514;-66
2023/03/19 04:12:20;;;;;;;13.85;9.30;;;9.20;99.90;;;;;;5073990;28;20454;-66
2023/03/19 04:14:48;;;;;;;17.60;10.05;;;9.20;99.90;;;;;;5056499;28;20063;-67
2023/03/19 04:17:15;;;;;;;17.67;9.98;;;9.20;99.90;;;;;;5073758;28;20418;-66
2023/03/19 04:19:43;;;;;;;16.50;10.60;;;9.30;99.90;;;;;;5075208;28;20047;-66
2023/03/19 04:22:10;;;;;;;19.00;10.55;;;9.30;99.90;;;;;;5101728;28;20039;-66
2023/03/19 04:24:37;;;;;;;17.58;10.00;;;9.30;99.90;;;;;;5075948;28;20043;-67
2023/03/19 04:27:07;;;;;;;15.73;10.50;;;9.30;99.90;;;;;;5093256;28;20441;-66
2023/03/19 04:29:36;;;;;;;16.40;11.27;;;9.40;99.90;;;;;;5094564;28;20040;-66
2023/03/19 04:32:04;;;;;;;18.67;10.75;;;9.40;99.90;;;;;;5089210;28;20042;-66
2023/03/19 04:34:31;;;;;;;17.65;10.43;;;9.40;99.90;;;;;;5090762;28;20047;-67
2023/03/19 04:36:58;;;;;;;16.02;10.52;;;9.40;99.90;;;;;;5094004;28;20493;-67
2023/03/19 04:39:26;;;;;;;17.40;10.93;;;9.40;99.90;;;;;;5084303;28;20035;-68
2023/03/19 04:41:54;;;;;;;17.02;10.63;;;9.40;99.90;;;;;;5073405;28;20502;-66
2023/03/19 04:44:25;;;;;;;16.80;11.45;;;9.40;99.90;;;;;;5073573;28;20500;-64
2023/03/19 04:46:53;;;;;;;17.27;10.52;;;9.40;99.90;;;;;;5073955;28;20510;-63
2023/03/19 04:49:23;;;;;;;19.67;11.38;;;9.40;99.90;;;;;;5074802;28;20085;-63
2023/03/19 04:51:51;;;;;;;15.20;11.00;;;9.40;99.90;;;;;;5058526;28;20494;-63
2023/03/19 04:54:19;;;;;;;17.50;10.98;;;9.40;99.90;;;;;;5074610;28;20121;-63
2023/03/19 04:56:46;;;;;;;16.10;10.82;;;9.30;99.90;;;;;;5056732;28;20058;-64
2023/03/19 04:59:14;;;;;;;17.13;11.32;;;9.30;99.90;;;;;;5072888;28;20176;-63
2023/03/19 05:01:42;;;;;;;18.55;11.13;;;9.30;99.90;;;;;;5088736;28;20116;-64
2023/03/19 05:04:11;;;;;;;17.77;10.93;;;9.30;99.90;;;;;;5075544;28;20410;-63
2023/03/19 05:06:38;;;;;;;17.52;11.23;;;9.30;99.90;;;;;;5069488;28;20134;-63
2023/03/19 05:09:06;;;;;;;17.30;11.00;;;9.30;99.90;;;;;;5073977;28;20040;-64
2023/03/19 05:11:33;;;;;;;17.77;11.05;;;9.30;99.90;;;;;;5078313;28;20058;-64
2023/03/19 05:14:04;;;;;;;15.55;10.70;;;9.30;99.90;;;;;;5071233;28;20435;-64
2023/03/19 05:16:57;;;;;;;18.92;10.95;;;9.30;99.90;;;;;;5084187;28;20500;-64
2023/03/19 05:19:29;;;;;;;16.05;10.88;;;9.30;99.90;;;;;;5054994;28;20113;-64
2023/03/19 05:21:57;;;;;;;16.52;11.18;;;9.40;99.90;;;;;;5081048;28;20447;-64
2023/03/19 05:24:25;;;;;;;16.35;11.35;;;9.40;99.90;;;;;;5058115;28;20105;-63
2023/03/19 05:26:55;;;;;;;20.38;11.40;;;9.40;99.90;;;;;;5056775;28;20093;-63
2023/03/19 05:29:28;;;;;;;15.40;10.48;;;9.40;99.90;;;;;;5072804;28;20036;-64
2023/03/19 05:32:14;;;;;;;15.18;10.52;;;9.40;99.90;;;;;;5082452;28;20040;-65
2023/03/19 05:34:42;;;;;;;20.20;12.02;;;9.40;99.90;;;;;;5072659;28;20039;-65
2023/03/19 05:37:10;;;;;;;15.80;10.43;;;9.50;99.90;;;;;;5072685;28;20040;-65
2023/03/19 05:39:37;;;;;;;16.58;10.30;;;9.50;99.90;;;;;;5072287;28;20069;-65
2023/03/19 05:42:08;;;;;;;16.73;10.98;;;9.50;99.90;;;;;;5073264;28;20046;-65
2023/03/19 05:44:36;;;;;;;13.18;10.27;;;9.50;99.90;;;;;;5072465;28;20386;-66
2023/03/19 05:47:16;;;;;;;15.15;10.45;;;9.50;99.90;;;;;;5073742;28;20058;-66
2023/03/19 05:49:49;;;;;;;15.75;10.25;;;9.50;99.90;;;;;;5072060;28;20040;-65
2023/03/19 05:52:18;;;;;;;17.85;11.13;;;9.60;99.90;;;;;;5090841;28;20143;-65
2023/03/19 05:54:48;;;;;;;12.75;9.85;;;9.60;99.90;;;;;;5056441;28;20043;-65
2023/03/19 05:57:36;;;;;;;14.55;9.48;;;9.70;99.90;;;;;;5078256;28;20044;-64
2023/03/19 06:00:09;;;;;;;17.25;9.95;;;9.70;99.90;;;;;;5059642;28;20047;-66
2023/03/19 06:02:37;;;;;;;15.75;10.68;;;9.60;99.90;;;;;;5072259;28;20032;-63
2023/03/19 06:05:20;;;;;;;16.20;10.30;;;9.50;99.90;;;;;;5076278;28;20042;-68
2023/03/19 06:07:50;;;;;;;17.75;10.88;;;9.60;99.90;;;;;;5091143;28;20455;-69
2023/03/19 06:10:28;;;;;;;16.48;10.30;;;9.70;99.90;;;;;;5087565;28;20047;-65
2023/03/19 06:12:58;;;;;;;15.82;10.50;;;9.70;99.90;;;;;;5086398;28;20043;-66
2023/03/19 06:15:37;;;;;;;18.33;10.55;;;9.70;99.90;;;;;;5078671;28;20074;-66
2023/03/19 06:18:22;;;;;;;14.85;10.65;;;9.80;99.90;;;;;;5086248;28;20046;-66
2023/03/19 06:20:50;;;;;;;14.07;10.05;;;9.80;99.90;;;;;;5091562;28;20133;-66
2023/03/19 06:23:18;;;;;;;15.50;10.30;;;9.80;99.90;;;;;;5077038;28;20047;-66
2023/03/19 06:25:45;;;;;;;17.10;10.57;;;9.90;99.90;;;;;;5071878;28;20064;-66
2023/03/19 06:28:13;;;;;;;15.20;9.63;;;9.90;99.90;;;;;;5070853;28;20055;-66
2023/03/19 06:30:43;;;;;;;13.85;10.10;;;10.00;99.90;;;;;;5103514;28;20059;-66
2023/03/19 06:33:31;;;;;;;16.35;10.63;;;10.00;99.90;;;;;;5111331;28;20509;-67
2023/03/19 06:35:59;;;;;;;13.75;10.00;;;10.10;99.90;;;;;;5074923;28;20545;-67
2023/03/19 06:38:28;;;;;;;13.18;9.82;;;10.10;99.90;;;;;;5090350;28;20034;-67
2023/03/19 06:40:55;;;;;;;17.23;10.52;;;10.20;99.90;;;;;;5088591;28;20151;-66
2023/03/19 06:43:22;;;;;;;11.48;8.25;;;10.20;99.90;;;;;;5106421;28;20036;-67
2023/03/19 06:45:50;;;;;;;14.93;10.00;;;10.30;99.90;;;;;;5090987;28;20039;-67
2023/03/19 06:48:17;;;;;;;12.65;9.18;;;10.40;99.90;;;;;;5092728;28;20040;-67
2023/03/19 06:50:45;;;;;;;14.45;9.52;;;10.50;99.90;;;;;;5099478;28;20134;-67
2023/03/19 06:53:13;;;;;;;15.55;9.98;;;10.60;99.90;;;;;;5091320;28;20097;-67
2023/03/19 06:55:41;;;;;;;16.60;9.27;;;10.80;99.90;;;;;;5088621;28;20518;-67
2023/03/19 06:58:08;;;;;;;14.60;9.07;;;10.90;99.90;;;;;;5072255;28;20123;-67
2023/03/19 07:00:35;;;;;;;12.93;9.63;;;11.00;99.90;;;;;;5088998;28;20036;-67
2023/03/19 07:03:03;;;;;;;17.23;10.35;;;11.10;99.90;;;;;;5072303;28;20517;-67
2023/03/19 07:05:30;;;;;;;13.38;8.45;;;11.30;99.90;;;;;;5089123;28;20470;-66
2023/03/19 07:07:58;;;;;;;15.40;8.80;;;11.30;99.90;;;;;;5089319;28;20058;-67
2023/03/19 07:10:25;;;;;;;12.88;8.43;;;11.30;99.90;;;;;;5091904;28;20482;-67
2023/03/19 07:12:53;;;;;;;12.93;7.50;;;11.30;99.90;;;;;;5089521;28;20115;-66
2023/03/19 07:15:20;;;;;;;17.48;8.88;;;11.40;99.90;;;;;;5090013;28;20059;-67
2023/03/19 07:17:48;;;;;;;11.77;7.43;;;11.40;99.90;;;;;;5089607;28;20511;-67
2023/03/19 07:20:16;;;;;;;12.27;7.00;;;11.40;99.90;;;;;;5071491;28;20462;-67
2023/03/19 07:22:43;;;;;;;12.15;8.43;;;11.50;99.90;;;;;;5104678;28;20055;-67
2023/03/19 07:25:10;;;;;;;12.10;8.07;;;11.60;99.90;;;;;;5109911;28;20047;-67
2023/03/19 07:27:38;;;;;;;16.23;8.50;;;11.60;99.90;;;;;;5105802;28;20559;-67
2023/03/19 07:30:06;;;;;;;13.13;7.75;;;11.60;99.90;;;;;;5077285;28;20474;-67
2023/03/19 07:32:33;;;;;;;11.57;7.55;;;11.80;99.90;;;;;;5109173;28;20417;-67
2023/03/19 07:35:01;;;;;;;13.45;7.80;;;11.80;99.90;;;;;;5088152;28;20146;-67
2023/03/19 07:37:28;;;;;;;9.35;6.68;;;11.90;99.90;;;;;;5113211;28;20048;-67
2023/03/19 07:39:56;;;;;;;8.95;6.47;;;11.90;99.90;;;;;;5078971;28;20060;-66
2023/03/19 07:42:23;;;;;;;10.15;7.05;;;11.90;99.90;;;;;;5102148;28;20143;-66
2023/03/19 07:44:50;;;;;;;9.93;7.20;;;11.90;99.90;;;;;;5107974;28;20051;-67
2023/03/19 07:47:18;;;;;;;13.07;7.10;;;12.00;99.90;;;;;;5084649;28;20442;-67
2023/03/19 07:49:56;;;;;;;9.20;6.45;;;11.90;99.90;;;;;;5112180;28;20028;-67
2023/03/19 07:52:24;;;;;;;9.68;6.43;;;11.90;99.90;;;;;;5093990;28;20035;-67
2023/03/19 07:54:52;;;;;;;11.88;8.02;;;12.00;99.90;;;;;;5112678;28;20046;-67
2023/03/19 07:57:19;;;;;;;14.13;8.57;;;12.00;99.90;;;;;;5113789;28;20044;-67
2023/03/19 07:59:47;;;;;;;14.07;9.05;;;12.00;99.90;;;;;;5101951;28;20434;-67
2023/03/19 08:02:15;;;;;;;13.15;9.30;;;12.00;99.90;;;;;;5110146;28;20486;-67
2023/03/19 08:04:43;;;;;;;20.60;11.18;;;12.00;99.90;;;;;;5113597;28;20036;-67
2023/03/19 08:07:11;;;;;;;14.88;9.23;;;12.00;99.90;;;;;;5113859;28;20032;-67
2023/03/19 08:09:39;;;;;;;17.90;9.77;;;12.00;99.90;;;;;;5113111;28;20397;-66
2023/03/19 08:12:07;;;;;;;13.15;9.00;;;12.10;99.90;;;;;;5103048;28;20065;-66
2023/03/19 08:14:35;;;;;;;13.20;8.52;;;12.20;99.90;;;;;;5075533;28;20052;-67
2023/03/19 08:17:02;;;;;;;13.70;8.55;;;12.10;99.90;;;;;;5096085;28;20040;-67
2023/03/19 08:19:30;;;;;;;13.77;8.77;;;12.10;99.90;;;;;;5101666;28;20040;-68
2023/03/19 08:21:58;;;;;;;14.55;8.80;;;12.10;99.90;;;;;;5090686;28;20513;-66
2023/03/19 08:24:25;;;;;;;10.68;7.38;;;12.10;99.90;;;;;;5103246;28;20046;-66
2023/03/19 08:26:52;;;;;;;11.23;7.63;;;11.90;99.90;;;;;;5112179;28;20131;-67
2023/03/19 08:29:20;;;;;;;9.82;7.43;;;11.80;99.90;;;;;;5113249;28;20123;-67
2023/03/19 08:31:47;;;;;;;10.32;6.90;;;11.70;99.90;;;;;;5094139;28;20044;-66
2023/03/19 08:34:15;;;;;;;10.70;7.00;;;11.50;99.90;;;;;;5088830;28;20137;-66
2023/03/19 08:36:42;;;;;;;9.45;5.80;;;11.50;99.90;;;;;;5092884;28;20047;-66
2023/03/19 08:39:09;;;;;;;11.10;6.00;;;11.60;99.90;;;;;;5112437;28;20383;-67
2023/03/19 08:41:37;;;;;;;9.90;5.50;;;11.50;99.90;;;;;;5102855;28;20044;-66
2023/03/19 08:44:04;;;;;;;6.22;5.05;;;11.50;99.90;;;;;;5094662;28;20462;-66
2023/03/19 08:46:32;;;;;;;10.80;4.95;;;11.40;99.90;;;;;;5100191;28;20122;-66
2023/03/19 08:48:59;;;;;;;7.82;4.20;;;11.30;99.90;;;;;;5088768;28;20036;-66
2023/03/19 08:51:29;;;;;;;7.15;4.13;;;11.20;99.90;;;;;;5064125;28;20087;-67
2023/03/19 08:53:57;;;;;;;8.95;5.43;;;11.00;99.90;;;;;;5092490;28;20514;-67
2023/03/19 08:56:24;;;;;;;8.18;4.10;;;11.10;99.90;;;;;;5080509;28;20416;-67
2023/03/19 08:58:51;;;;;;;8.75;4.53;;;11.00;99.90;;;;;;5094035;28;20055;-67
2023/03/19 09:01:18;;;;;;;5.65;3.70;;;11.00;99.90;;;;;;5087446;28;20513;-67
2023/03/19 09:03:46;;;;;;;5.30;3.58;;;11.00;99.90;;;;;;5106265;28;20127;-67
2023/03/19 09:06:13;;;;;;;5.82;3.80;;;10.90;99.90;;;;;;5093624;28;20042;-67
2023/03/19 09:08:41;;;;;;;4.38;2.95;;;10.90;99.90;;;;;;5094498;28;20039;-67
2023/03/19 09:11:09;;;;;;;4.90;3.20;;;10.90;99.90;;;;;;5113716;27;20635;-67
2023/03/19 09:13:37;;;;;;;8.07;4.85;;;10.90;99.90;;;;;;5116116;27;20539;-67
2023/03/19 09:16:05;;;;;;;6.68;3.42;;;11.10;99.90;;;;;;5094539;28;20043;-67
2023/03/19 09:18:33;;;;;;;8.40;4.10;;;11.20;99.90;;;;;;5093287;28;20401;-69
2023/03/19 09:21:01;;;;;;;6.53;3.97;;;11.20;99.90;;;;;;5110760;27;20454;-70
2023/03/19 09:23:28;;;;;;;6.65;3.60;;;11.50;99.90;;;;;;5093177;27;20054;-69
2023/03/19 09:25:55;;;;;;;6.18;3.65;;;11.80;99.90;;;;;;5114207;27;20070;-68
2023/03/19 09:28:23;;;;;;;5.82;3.47;;;12.00;99.90;;;;;;5116441;27;20069;-68
2023/03/19 09:30:51;;;;;;;6.18;3.83;;;12.10;99.90;;;;;;5112187;27;20062;-67
2023/03/19 09:33:20;;;;;;;6.38;3.08;;;12.20;99.90;;;;;;5115242;27;20123;-68
2023/03/19 09:35:52;;;;;;;6.00;3.20;;;12.30;99.90;;;;;;5091632;28;20050;-68
2023/03/19 09:38:21;;;;;;;5.75;3.22;;;12.40;99.90;;;;;;5106325;27;20562;-68
2023/03/19 09:41:20;;;;;;;6.20;3.30;;;12.70;99.90;;;;;;5121015;27;20074;-68
2023/03/19 09:43:56;;;;;;;5.70;3.28;;;12.70;99.90;;;;;;5103462;27;20047;-68
2023/03/19 09:46:43;;;;;;;4.93;3.05;;;12.80;99.90;;;;;;5101793;27;20043;-68
2023/03/19 09:49:34;;;;;;;6.43;3.10;;;12.80;99.90;;;;;;5104973;27;20081;-68
2023/03/19 09:52:19;;;;;;;4.20;2.10;;;12.80;99.90;;;;;;5087890;28;20039;-68
2023/03/19 09:54:51;;;;;;;5.45;2.55;;;12.60;99.90;;;;;;5107752;27;20482;-68
2023/03/19 09:57:19;;;;;;;4.10;2.75;;;12.50;99.90;;;;;;5114403;27;20042;-68
2023/03/19 09:59:47;;;;;;;3.88;2.28;;;12.60;99.90;;;;;;5109161;27;20040;-68
2023/03/19 10:02:36;;;;;;;4.68;2.80;;;12.70;99.90;;;;;;5088819;28;20046;-68
2023/03/19 10:05:14;;;;;;;5.30;2.72;;;12.70;99.90;;;;;;5108334;27;20027;-69
2023/03/19 10:08:07;;;;;;;4.60;2.90;;;12.70;99.90;;;;;;5092315;28;20058;-68
2023/03/19 10:11:07;;;;;;;9.07;3.30;;;12.80;99.90;;;;;;5114437;27;20044;-68
2023/03/19 10:14:20;;;;;;;6.00;3.53;;;12.70;99.90;;;;;;5105995;27;20379;-66
2023/03/19 10:16:50;;;;;;;6.60;3.78;;;12.70;99.90;;;;;;5105201;28;20135;-68
2023/03/19 10:19:23;;;;;;;6.45;3.78;;;12.50;99.90;;;;;;5108723;27;20047;-67
2023/03/19 10:22:18;;;;;;;5.85;3.65;;;12.40;99.90;;;;;;5113740;27;20139;-67
2023/03/19 10:24:47;;;;;;;7.00;4.10;;;12.30;99.90;;;;;;5115533;27;20044;-67
2023/03/19 10:27:17;;;;;;;8.10;4.30;;;12.20;99.90;;;;;;5107074;28;20036;-67
2023/03/19 10:29:45;;;;;;;13.20;5.00;;;12.30;99.90;;;;;;5109996;28;20044;-66
2023/03/19 10:32:40;;;;;;;6.78;4.15;;;12.30;99.90;;;;;;5109238;28;20055;-68
2023/03/19 10:35:42;;;;;;;7.35;4.38;;;12.30;99.90;;;;;;5108120;28;20043;-67
2023/03/19 10:38:24;;;;;;;8.80;4.80;;;12.40;99.90;;;;;;5101978;28;20477;-67
2023/03/19 10:41:20;;;;;;;10.18;5.70;;;12.40;99.90;;;;;;5113237;28;20043;-67
2023/03/19 10:43:58;;;;;;;7.05;4.95;;;12.60;99.90;;;;;;5102342;28;20067;-67
2023/03/19 10:46:26;;;;;;;9.88;6.65;;;12.70;99.90;;;;;;5107020;28;20044;-67
2023/03/19 10:48:53;;;;;;;10.23;7.35;;;12.90;99.90;;;;;;5112038;28;20646;-67
2023/03/19 10:51:25;;;;;;;12.93;8.05;;;13.00;99.90;;;;;;5118335;28;20058;-67
2023/03/19 10:53:55;;;;;;;11.13;7.05;;;13.10;99.90;;;;;;5102915;28;20055;-67
2023/03/19 10:56:29;;;;;;;14.45;7.32;;;13.20;99.90;;;;;;5101723;28;20560;-67
2023/03/19 10:59:06;;;;;;;14.48;7.70;;;13.20;99.90;;;;;;5115331;28;20035;-67
2023/03/19 11:01:40;;;;;;;15.57;7.90;;;13.40;99.90;;;;;;5117265;28;20124;-67
2023/03/19 11:04:16;;;;;;;10.27;7.28;;;13.60;99.90;;;;;;5103251;28;20105;-67
2023/03/19 11:06:52;;;;;;;9.77;6.30;;;13.70;99.90;;;;;;5098008;28;20437;-67
2023/03/19 11:09:33;;;;;;;13.27;6.60;;;14.00;99.90;;;;;;5102943;28;20070;-67
2023/03/19 11:12:18;;;;;;;9.32;5.68;;;14.40;99.90;;;;;;5107166;27;20047;-67
2023/03/19 11:14:48;;;;;;;8.98;5.40;;;14.70;99.90;;;;;;5096355;27;20047;-67
2023/03/19 11:17:26;;;;;;;10.05;5.90;;;15.10;99.90;;;;;;5111660;27;20144;-67
2023/03/19 11:19:56;;;;;;;8.68;5.03;;;15.40;99.90;;;;;;5121122;27;20093;-68
2023/03/19 11:22:36;;;;;;;7.18;4.40;;;15.60;99.90;;;;;;5119823;27;20505;-69
2023/03/19 11:25:19;;;;;;;6.30;4.22;;;16.10;99.90;;;;;;5090658;28;20044;-70
2023/03/19 11:28:02;;;;;;;8.98;4.88;;;16.40;99.90;;;;;;5091812;28;20528;-68
2023/03/19 11:30:48;;;;;;;8.52;4.75;;;16.80;99.90;;;;;;5094857;28;20075;-68
2023/03/19 11:33:46;;;;;;;6.95;4.50;;;17.10;99.90;;;;;;5102597;28;20046;-68
2023/03/19 11:36:47;;;;;;;5.13;3.78;;;17.40;99.90;;;;;;5103397;28;20476;-68
2023/03/19 11:39:21;;;;;;;11.18;5.05;;;18.00;99.90;;;;;;5108803;28;20044;-68
2023/03/19 11:41:57;;;;;;;7.05;4.70;;;18.20;99.90;;;;;;5093001;28;20510;-69
2023/03/19 11:44:50;;;;;;;8.40;6.50;;;18.60;99.90;;;;;;5094086;28;20079;-68
2023/03/19 11:47:34;;;;;;;7.68;5.38;;;19.00;99.90;;;;;;5066489;28;20525;-68
2023/03/19 11:50:19;;;;;;;16.08;10.48;;;19.30;99.90;;;;;;5096021;28;20585;-67
2023/03/19 11:52:55;;;;;;;8.77;6.25;;;19.30;99.90;;;;;;5091563;28;20518;-69
2023/03/19 11:55:44;;;;;;;8.98;6.72;;;19.50;99.90;;;;;;5076284;28;20066;-69
2023/03/19 11:58:43;;;;;;;9.38;5.80;;;19.80;99.90;;;;;;5094265;28;20040;-68
2023/03/19 12:01:24;;;;;;;7.00;4.60;;;20.20;99.90;;;;;;5108930;28;20732;-67
2023/03/19 12:04:02;;;;;;;5.85;4.20;;;20.10;99.90;;;;;;5100759;28;20083;-68
2023/03/19 12:06:33;;;;;;;6.40;4.30;;;20.00;99.90;;;;;;5103292;28;20490;-69
2023/03/19 12:09:03;;;;;;;6.97;4.53;;;20.50;99.90;;;;;;5109847;28;20040;-69
2023/03/19 12:11:54;;;;;;;6.07;4.60;;;20.90;99.90;;;;;;5110999;27;20035;-68
2023/03/19 12:14:51;;;;;;;6.50;4.82;;;20.90;99.90;;;;;;5105658;28;20051;-69
2023/03/19 12:17:44;;;;;;;5.97;4.15;;;21.20;99.90;;;;;;5103251;28;20074;-68
2023/03/19 12:20:37;;;;;;;7.53;4.85;;;21.70;99.90;;;;;;5113212;28;20117;-68
2023/03/19 12:23:55;;;;;;;6.28;4.95;;;22.00;99.90;;;;;;5077103;28;20506;-69
2023/03/19 12:26:30;;;;;;;7.35;5.80;;;22.10;99.90;;;;;;5042480;28;20059;-69
2023/03/19 12:29:02;;;;;;;7.85;5.53;;;21.90;99.90;;;;;;5095109;28;20040;-68
2023/03/19 12:31:36;;;;;;;8.10;5.85;;;21.90;99.90;;;;;;5108347;28;20028;-68
2023/03/19 12:34:15;;;;;;;6.45;5.07;;;21.90;99.90;;;;;;5094009;28;20722;-68
2023/03/19 12:37:10;;;;;;;7.50;5.32;;;21.80;99.90;;;;;;5112854;28;20505;-68
2023/03/19 12:39:44;;;;;;;6.85;5.28;;;22.20;99.90;;;;;;5083241;28;20391;-68
2023/03/19 12:42:17;;;;;;;7.53;6.13;;;22.70;99.90;;;;;;5110825;27;20048;-69
2023/03/19 12:44:54;;;;;;;6.82;5.60;;;22.00;99.90;;;;;;5119126;27;20070;-68
2023/03/19 12:47:30;;;;;;;9.50;5.70;;;22.30;99.90;;;;;;5107123;27;20035;-70
2023/03/19 12:50:08;;;;;;;7.88;5.95;;;21.50;99.90;;;;;;5112073;28;20130;-69
2023/03/19 12:52:38;;;;;;;7.68;5.18;;;21.20;99.90;;;;;;5099346;28;20044;-67
2023/03/19 12:55:11;;;;;;;7.38;5.30;;;20.80;99.90;;;;;;5112663;28;20094;-68
2023/03/19 12:57:50;;;;;;;8.02;6.35;;;21.10;99.90;;;;;;5112587;28;20094;-69
2023/03/19 13:00:27;;;;;;;5.90;4.80;;;22.20;99.90;;;;;;5112314;28;20046;-69
2023/03/19 13:03:05;;;;;;;8.02;4.78;;;22.00;99.90;;;;;;5112291;28;20065;-69
2023/03/19 13:05:43;;;;;;;6.05;5.25;;;21.90;99.90;;;;;;5110004;28;20039;-69
2023/03/19 13:08:33;;;;;;;5.43;4.40;;;22.40;99.90;;;;;;5077501;28;20044;-69
2023/03/19 13:11:07;;;;;;;6.97;4.40;;;22.40;99.90;;;;;;5101445;28;20035;-68